Airfield :
LOGIN :

Register | Disclaimer

   EN    FR    IT 

 










Legend :    VFR   Marginal VFR   IFR   Intensive IFR   Very Intensive IFR
Visi :
Ceiling :
>= 8 km
>= 3000ft
5 to 8 km
1000 to 3000 ft
1500m to 5 km
500 to 1000 ft
800 to 1500m
200 to 500 ft
< 800m
< 200 ft
Symbols :   Thunderstorms  Fog  Heavy snow  Heavy precipitations  Wind > 20 kt
SIGMETs :     Misc.  Thunderstorms  Icing  Turbulence  Mountain Waves  Volcanic Ashes






- Airport Elevation : 141 ft
- IATA code : SKS


EKSP - Srydstrup Vojens

CURRENT METAR :
  • 291120Z 36007G18KT 310V050 9999 SCT017 BKN060 12/09 Q1000 TEMPO 5000 -SHRA SCT020CB

EXPIRED METARs :
  • 291050Z 01008KT 330V040 9999 SCT015 BKN060 12/09 Q1000 TEMPO 5000 -SHRA SCT020CB
  • 291020Z 01007KT 320V060 9999 FEW014 BKN050 12/09 Q1000 TEMPO 5000 -SHRA SCT020CB
  • 290950Z 01006G16KT 330V060 9999 SCT014 BKN055 12/09 Q1000 TEMPO 5000 -SHRA SCT020CB
  • 290920Z 01007KT 320V050 9999 SCT012 BKN120 12/10 Q0999 TEMPO 5000 -SHRA SCT020CB
  • 290850Z 36006KT 330V050 9999 SCT012 BKN060 BKN130 11/09 Q0999 TEMPO 5000 -SHRA SCT020CB

TAF TAF EKSP
Valid from the 29 at 12:00 until the 30 at 12:00 UTC


291100Z 2912/3012 36010KT 9999 SCT012 BKN020
TEMPO 2912/2924 5000 -SHRA BKN015 SCT020CB
BECMG 3000/3002 28005KT 1500 BR BKN002
TEMPO 3002/3008 0100 FG
BECMG 3008/3010 9000 NSW BKN020



MET'MAP, your aeronautical weather chart ! - Copyright ORBIFLY December 2007 - Disclaimer

ORBIFLY MET'MAP TEAM :

Programming & Development : Alexandra Zaïnal
Original concept : Baudouin d'Aumeries
Technical & hardware support : Manuel Goepfert
Assistance : Marc-Olivier Méhu




SOURCES & CREDITS :

   NOAA